Wetterdaten: Montag, 13.04.2015
Datum Zeit Temp. A. Feuchte A. Luftdruck Regen Wind Richtung Richtung Sonnenschein ET UV Solar Taupunkt Windchill Windben Empfang
13.04.2015 00:00 8,9 C 74 % 1027,4 hPa 0,0 l/m 0,0 km/h (0 Bft) S 182 0 min 0,000 mm 0,0 UV-I 0 W/m 4,5 C 8,9 C 0,0 km/h (0 Bft) 0,00 %
13.04.2015 00:15 8,6 C 76 % 1027,4 hPa 0,0 l/m 0,0 km/h (0 Bft) S 183 0 min 0,000 mm 0,0 UV-I 0 W/m 4,6 C 8,6 C 0,0 km/h (0 Bft) 0,00 %
13.04.2015 00:30 8,4 C 77 % 1027,2 hPa 0,0 l/m 0,0 km/h (0 Bft) S 191 0 min 0,000 mm 0,0 UV-I 0 W/m 4,6 C 8,4 C 0,0 km/h (0 Bft) 0,00 %
13.04.2015 00:45 8,2 C 78 % 1027,4 hPa 0,0 l/m 0,0 km/h (0 Bft) S-SW 206 0 min 0,000 mm 0,0 UV-I 0 W/m 4,6 C 8,2 C 0,0 km/h (0 Bft) 0,00 %
13.04.2015 01:00 8,1 C 79 % 1027,2 hPa 0,0 l/m 0,0 km/h (0 Bft) SW 222 0 min 0,000 mm 0,0 UV-I 0 W/m 4,7 C 8,1 C 0,0 km/h (0 Bft) 0,00 %
13.04.2015 01:15 8,0 C 78 % 1027,3 hPa 0,0 l/m 0,0 km/h (0 Bft) S 183 0 min 0,000 mm 0,0 UV-I 0 W/m 4,4 C 8,0 C 0,0 km/h (0 Bft) 0,00 %
13.04.2015 01:30 7,9 C 78 % 1027,1 hPa 0,0 l/m 0,0 km/h (0 Bft) S 190 0 min 0,000 mm 0,0 UV-I 0 W/m 4,3 C 7,9 C 0,0 km/h (0 Bft) 0,00 %
13.04.2015 01:45 7,8 C 78 % 1026,9 hPa 0,0 l/m 0,0 km/h (0 Bft) S 186 0 min 0,000 mm 0,0 UV-I 0 W/m 4,2 C 7,8 C 0,0 km/h (0 Bft) 0,00 %
13.04.2015 02:00 7,9 C 77 % 1026,8 hPa 0,0 l/m 0,0 km/h (0 Bft) SO 124 0 min 0,000 mm 0,0 UV-I 0 W/m 4,1 C 7,9 C 0,0 km/h (0 Bft) 0,00 %
13.04.2015 02:15 8,1 C 76 % 1026,8 hPa 0,0 l/m 0,0 km/h (0 Bft) S 190 0 min 0,000 mm 0,0 UV-I 0 W/m 4,1 C 8,1 C 0,0 km/h (0 Bft) 0,00 %
13.04.2015 02:30 7,5 C 78 % 1026,9 hPa 0,0 l/m 0,0 km/h (0 Bft) S 180 0 min 0,000 mm 0,0 UV-I 0 W/m 3,9 C 7,5 C 0,0 km/h (0 Bft) 0,00 %
13.04.2015 02:45 7,3 C 79 % 1026,8 hPa 0,0 l/m 0,0 km/h (0 Bft) S 179 0 min 0,000 mm 0,0 UV-I 0 W/m 3,9 C 7,3 C 0,0 km/h (0 Bft) 0,00 %
13.04.2015 03:00 7,4 C 79 % 1026,8 hPa 0,0 l/m 0,0 km/h (0 Bft) S 189 0 min 0,000 mm 0,0 UV-I 0 W/m 4,0 C 7,4 C 0,0 km/h (0 Bft) 0,00 %
13.04.2015 03:15 7,4 C 77 % 1026,6 hPa 0,0 l/m 0,0 km/h (0 Bft) S 181 0 min 0,000 mm 0,0 UV-I 0 W/m 3,6 C 7,4 C 0,0 km/h (0 Bft) 0,00 %
13.04.2015 03:30 7,3 C 78 % 1026,5 hPa 0,0 l/m 0,0 km/h (0 Bft) S 183 0 min 0,000 mm 0,0 UV-I 0 W/m 3,7 C 7,3 C 0,0 km/h (0 Bft) 0,00 %
13.04.2015 03:45 7,2 C 78 % 1026,4 hPa 0,0 l/m 0,0 km/h (0 Bft) S 189 0 min 0,000 mm 0,0 UV-I 0 W/m 3,6 C 7,2 C 0,0 km/h (0 Bft) 0,00 %
13.04.2015 04:00 7,0 C 78 % 1026,5 hPa 0,0 l/m 0,0 km/h (0 Bft) S 176 0 min 0,000 mm 0,0 UV-I 0 W/m 3,4 C 7,0 C 0,0 km/h (0 Bft) 0,00 %
13.04.2015 04:15 6,6 C 79 % 1026,5 hPa 0,0 l/m 0,0 km/h (0 Bft) S 183 0 min 0,000 mm 0,0 UV-I 0 W/m 3,2 C 6,6 C 0,0 km/h (0 Bft) 0,00 %
13.04.2015 04:30 6,5 C 79 % 1026,4 hPa 0,0 l/m 0,0 km/h (0 Bft) S 187 0 min 0,000 mm 0,0 UV-I 0 W/m 3,1 C 6,5 C 0,0 km/h (0 Bft) 0,00 %
13.04.2015 04:45 6,6 C 79 % 1026,2 hPa 0,0 l/m 0,0 km/h (0 Bft) S 178 0 min 0,000 mm 0,0 UV-I 0 W/m 3,2 C 6,6 C 0,0 km/h (0 Bft) 0,00 %
13.04.2015 05:00 6,5 C 80 % 1026,2 hPa 0,0 l/m 0,0 km/h (0 Bft) S 176 0 min 0,000 mm 0,0 UV-I 0 W/m 3,3 C 6,5 C 0,0 km/h (0 Bft) 0,00 %
13.04.2015 05:15 6,2 C 80 % 1026,4 hPa 0,0 l/m 0,0 km/h (0 Bft) S 181 0 min 0,000 mm 0,0 UV-I 0 W/m 3,0 C 6,2 C 0,0 km/h (0 Bft) 0,00 %
13.04.2015 05:30 5,7 C 81 % 1026,6 hPa 0,0 l/m 0,0 km/h (0 Bft) S 180 0 min 0,000 mm 0,0 UV-I 0 W/m 2,7 C 5,7 C 0,0 km/h (0 Bft) 0,00 %
13.04.2015 05:45 5,6 C 82 % 1026,6 hPa 0,0 l/m 0,0 km/h (0 Bft) S 179 0 min 0,000 mm 0,0 UV-I 0 W/m 2,8 C 5,6 C 0,0 km/h (0 Bft) 0,00 %
13.04.2015 06:00 5,7 C 82 % 1026,5 hPa 0,0 l/m 0,0 km/h (0 Bft) S 177 0 min 0,000 mm 0,0 UV-I 0 W/m 2,9 C 5,7 C 0,0 km/h (0 Bft) 0,00 %
13.04.2015 06:15 5,7 C 82 % 1026,6 hPa 0,0 l/m 0,0 km/h (0 Bft) S 187 0 min 0,000 mm 0,0 UV-I 0 W/m 2,9 C 5,7 C 0,0 km/h (0 Bft) 0,00 %
13.04.2015 06:30 6,2 C 81 % 1026,6 hPa 0,0 l/m 0,0 km/h (0 Bft) S-SW 206 15 min 0,000 mm 0,0 UV-I 16 W/m 3,2 C 6,2 C 0,0 km/h (0 Bft) 0,00 %
13.04.2015 06:45 7,2 C 77 % 1026,4 hPa 0,0 l/m 0,0 km/h (0 Bft) S 186 15 min 0,000 mm 0,0 UV-I 52 W/m 3,4 C 7,2 C 0,0 km/h (0 Bft) 0,00 %
13.04.2015 07:00 8,4 C 71 % 1026,3 hPa 0,0 l/m 0,7 km/h (0 Bft) W-SW 256 15 min 0,000 mm 1,0 UV-I 82 W/m 3,5 C 8,4 C 4,0 km/h (1 Bft) 0,00 %
13.04.2015 07:15 8,8 C 71 % 1026,8 hPa 0,0 l/m 0,0 km/h (0 Bft) S-SW 211 15 min 0,000 mm 1,0 UV-I 104 W/m 3,8 C 8,8 C 0,0 km/h (0 Bft) 0,00 %
13.04.2015 07:30 9,3 C 71 % 1027,0 hPa 0,0 l/m 0,0 km/h (0 Bft) W-SW 251 15 min 0,000 mm 1,0 UV-I 110 W/m 4,3 C 9,3 C 0,0 km/h (0 Bft) 0,00 %
13.04.2015 07:45 10,0 C 67 % 1027,1 hPa 0,0 l/m 0,0 km/h (0 Bft) W-SW 251 15 min 0,000 mm 1,0 UV-I 147 W/m 4,2 C 10,0 C 0,0 km/h (0 Bft) 0,00 %
13.04.2015 08:00 10,5 C 66 % 1027,0 hPa 0,0 l/m 0,0 km/h (0 Bft) S-SW 211 0 min 0,000 mm 1,0 UV-I 142 W/m 4,4 C 10,5 C 0,0 km/h (0 Bft) 0,00 %
13.04.2015 08:15 11,7 C 62 % 1026,7 hPa 0,0 l/m 0,0 km/h (0 Bft) S-SO 157 15 min 0,000 mm 1,0 UV-I 189 W/m 4,7 C 11,7 C 0,0 km/h (0 Bft) 0,00 %
13.04.2015 08:30 12,3 C 62 % 1026,7 hPa 0,0 l/m 0,4 km/h (0 Bft) W-SW 256 0 min 0,000 mm 2,0 UV-I 174 W/m 5,2 C 12,3 C 4,0 km/h (1 Bft) 0,00 %
13.04.2015 08:45 13,6 C 58 % 1026,7 hPa 0,0 l/m 4,0 km/h (1 Bft) W-SW 256 0 min 0,000 mm 2,0 UV-I 187 W/m 5,5 C 13,6 C 7,9 km/h (2 Bft) 0,00 %
13.04.2015 09:00 14,6 C 54 % 1026,7 hPa 0,0 l/m 0,4 km/h (0 Bft) N-NW 343 0 min 0,000 mm 2,0 UV-I 181 W/m 5,4 C 14,6 C 4,0 km/h (1 Bft) 0,00 %
13.04.2015 09:15 15,1 C 53 % 1026,7 hPa 0,0 l/m 1,8 km/h (1 Bft) SW 219 15 min 0,000 mm 2,0 UV-I 280 W/m 5,6 C 15,1 C 4,0 km/h (1 Bft) 0,00 %
13.04.2015 09:30 15,4 C 53 % 1026,7 hPa 0,0 l/m 10,8 km/h (2 Bft) W-SW 250 15 min 0,000 mm 2,0 UV-I 291 W/m 5,9 C 13,2 C 15,8 km/h (3 Bft) 0,00 %
13.04.2015 09:45 15,0 C 54 % 1026,7 hPa 0,0 l/m 9,0 km/h (2 Bft) SW 226 0 min 0,000 mm 2,0 UV-I 222 W/m 5,8 C 13,6 C 11,9 km/h (2 Bft) 0,00 %
13.04.2015 10:00 14,7 C 53 % 1027,4 hPa 0,0 l/m 2,2 km/h (1 Bft) W-SW 255 0 min 0,000 mm 2,0 UV-I 178 W/m 5,2 C 14,7 C 7,9 km/h (2 Bft) 0,00 %
13.04.2015 10:15 14,6 C 54 % 1027,5 hPa 0,0 l/m 9,4 km/h (2 Bft) W 279 0 min 0,000 mm 2,0 UV-I 227 W/m 5,4 C 13,0 C 11,9 km/h (2 Bft) 0,00 %
13.04.2015 10:30 14,5 C 54 % 1028,0 hPa 0,0 l/m 4,0 km/h (1 Bft) W-SW 255 0 min 0,000 mm 2,0 UV-I 223 W/m 5,3 C 14,5 C 7,9 km/h (2 Bft) 0,00 %
13.04.2015 10:45 14,5 C 52 % 1028,0 hPa 0,0 l/m 19,8 km/h (3 Bft) W-SW 256 0 min 0,000 mm 3,0 UV-I 206 W/m 4,8 C 9,2 C 24,1 km/h (4 Bft) 0,00 %
13.04.2015 11:00 15,3 C 49 % 1027,9 hPa 0,0 l/m 6,8 km/h (2 Bft) W-SW 256 15 min 0,000 mm 2,0 UV-I 381 W/m 4,7 C 15,1 C 7,9 km/h (2 Bft) 0,00 %
13.04.2015 11:15 15,0 C 49 % 1028,0 hPa 0,0 l/m 4,3 km/h (1 Bft) W-SW 252 0 min 0,000 mm 4,0 UV-I 287 W/m 4,4 C 15,0 C 7,9 km/h (2 Bft) 0,00 %
13.04.2015 11:30 15,6 C 47 % 1027,8 hPa 0,0 l/m 2,9 km/h (1 Bft) W-SW 255 15 min 0,000 mm 4,0 UV-I 565 W/m 4,3 C 15,6 C 7,9 km/h (2 Bft) 0,00 %
13.04.2015 11:45 16,6 C 48 % 1027,4 hPa 0,0 l/m 4,0 km/h (1 Bft) W-SW 255 15 min 0,000 mm 3,0 UV-I 588 W/m 5,5 C 16,6 C 4,0 km/h (1 Bft) 0,00 %
13.04.2015 12:00 16,1 C 48 % 1027,4 hPa 0,0 l/m 0,0 km/h (0 Bft) S-SW 192 0 min 0,000 mm 5,0 UV-I 276 W/m 5,1 C 16,1 C 0,0 km/h (0 Bft) 0,00 %
13.04.2015 12:15 16,1 C 49 % 1027,2 hPa 0,0 l/m 10,4 km/h (2 Bft) W-SW 242 0 min 0,000 mm 2,0 UV-I 186 W/m 5,4 C 14,2 C 15,8 km/h (3 Bft) 0,00 %
13.04.2015 12:30 16,2 C 49 % 1027,0 hPa 0,0 l/m 7,2 km/h (2 Bft) NW 310 0 min 0,000 mm 3,0 UV-I 241 W/m 5,5 C 15,8 C 11,9 km/h (2 Bft) 0,00 %
13.04.2015 12:45 16,7 C 44 % 1026,8 hPa 0,0 l/m 7,9 km/h (2 Bft) SW 223 15 min 0,000 mm 5,0 UV-I 699 W/m 4,4 C 15,9 C 11,9 km/h (2 Bft) 0,00 %
13.04.2015 13:00 17,6 C 41 % 1026,4 hPa 0,0 l/m 7,2 km/h (2 Bft) SW 220 0 min 0,000 mm 5,0 UV-I 327 W/m 4,2 C 17,2 C 7,9 km/h (2 Bft) 0,00 %
13.04.2015 13:15 17,1 C 39 % 1026,5 hPa 0,0 l/m 10,8 km/h (2 Bft) W-SW 255 15 min 0,000 mm 3,0 UV-I 609 W/m 3,0 C 15,1 C 15,8 km/h (3 Bft) 0,00 %
13.04.2015 13:30 17,5 C 39 % 1026,2 hPa 0,0 l/m 10,8 km/h (2 Bft) W-NW 290 0 min 0,000 mm 3,0 UV-I 348 W/m 3,4 C 15,6 C 15,8 km/h (3 Bft) 0,00 %
13.04.2015 13:45 16,8 C 39 % 1026,1 hPa 0,0 l/m 7,9 km/h (2 Bft) W-NW 294 0 min 0,000 mm 5,0 UV-I 226 W/m 2,8 C 16,0 C 11,9 km/h (2 Bft) 0,00 %
13.04.2015 14:00 18,3 C 38 % 1025,7 hPa 0,0 l/m 9,7 km/h (2 Bft) O-NO 68 15 min 0,000 mm 5,0 UV-I 780 W/m 3,7 C 16,9 C 11,9 km/h (2 Bft) 0,00 %
13.04.2015 14:15 18,0 C 36 % 1025,4 hPa 0,0 l/m 16,9 km/h (3 Bft) W-SW 255 15 min 0,000 mm 4,0 UV-I 858 W/m 2,7 C 14,3 C 24,1 km/h (4 Bft) 0,00 %
13.04.2015 14:30 17,2 C 41 % 1025,8 hPa 0,0 l/m 13,3 km/h (3 Bft) W-SW 256 0 min 0,000 mm 2,0 UV-I 195 W/m 3,8 C 14,4 C 15,8 km/h (3 Bft) 0,00 %
13.04.2015 14:45 17,0 C 39 % 1025,7 hPa 0,0 l/m 9,0 km/h (2 Bft) W-NW 298 0 min 0,000 mm 1,0 UV-I 264 W/m 2,9 C 15,7 C 11,9 km/h (2 Bft) 0,00 %
13.04.2015 15:00 17,8 C 39 % 1025,4 hPa 0,0 l/m 3,2 km/h (1 Bft) W-SW 256 0 min 0,000 mm 3,0 UV-I 370 W/m 3,7 C 17,8 C 7,9 km/h (2 Bft) 0,00 %
13.04.2015 15:15 17,8 C 39 % 1025,3 hPa 0,0 l/m 8,3 km/h (2 Bft) S-SW 202 15 min 0,000 mm 2,0 UV-I 614 W/m 3,7 C 16,9 C 15,8 km/h (3 Bft) 0,00 %
13.04.2015 15:30 18,4 C 36 % 1024,6 hPa 0,0 l/m 13,3 km/h (3 Bft) W-SW 256 15 min 0,000 mm 2,0 UV-I 533 W/m 3,1 C 15,8 C 15,8 km/h (3 Bft) 0,00 %
13.04.2015 15:45 17,5 C 40 % 1024,7 hPa 0,0 l/m 0,4 km/h (0 Bft) SW 216 0 min 0,000 mm 2,0 UV-I 203 W/m 3,8 C 17,5 C 4,0 km/h (1 Bft) 0,00 %
13.04.2015 16:00 17,7 C 40 % 1024,2 hPa 0,0 l/m 5,8 km/h (2 Bft) W-NW 300 0 min 0,000 mm 2,0 UV-I 320 W/m 3,9 C 17,7 C 7,9 km/h (2 Bft) 0,00 %
13.04.2015 16:15 18,0 C 38 % 1024,1 hPa 0,0 l/m 4,3 km/h (1 Bft) W-SW 256 0 min 0,000 mm 1,0 UV-I 234 W/m 3,5 C 18,0 C 7,9 km/h (2 Bft) 0,00 %
13.04.2015 16:30 17,3 C 36 % 1024,3 hPa 0,0 l/m 13,3 km/h (3 Bft) W-SW 254 0 min 0,000 mm 2,0 UV-I 186 W/m 2,1 C 14,5 C 15,8 km/h (3 Bft) 0,00 %
13.04.2015 16:45 16,1 C 52 % 1024,6 hPa 0,0 l/m 1,4 km/h (1 Bft) N-NW 340 0 min 0,000 mm 1,0 UV-I 134 W/m 6,2 C 16,1 C 4,0 km/h (1 Bft) 0,00 %
13.04.2015 17:00 14,5 C 59 % 1024,9 hPa 0,0 l/m 9,4 km/h (2 Bft) W-SW 256 0 min 0,000 mm 1,0 UV-I 163 W/m 6,6 C 12,9 C 11,9 km/h (2 Bft) 0,00 %
13.04.2015 17:15 14,3 C 63 % 1025,1 hPa 0,0 l/m 1,4 km/h (1 Bft) W-SW 253 15 min 0,000 mm 2,0 UV-I 338 W/m 7,4 C 14,3 C 4,0 km/h (1 Bft) 0,00 %
13.04.2015 17:30 14,5 C 62 % 1024,8 hPa 0,0 l/m 0,0 km/h (0 Bft) S 184 0 min 0,000 mm 1,0 UV-I 184 W/m 7,3 C 14,5 C 0,0 km/h (0 Bft) 0,00 %
13.04.2015 17:45 14,7 C 59 % 1025,0 hPa 0,0 l/m 1,4 km/h (1 Bft) W-NW 287 0 min 0,000 mm 1,0 UV-I 164 W/m 6,8 C 14,7 C 4,0 km/h (1 Bft) 0,00 %
13.04.2015 18:00 15,0 C 56 % 1024,9 hPa 0,0 l/m 0,0 km/h (0 Bft) W-SW 254 15 min 0,000 mm 1,0 UV-I 205 W/m 6,3 C 15,0 C 0,0 km/h (0 Bft) 0,00 %
13.04.2015 18:15 15,2 C 55 % 1024,9 hPa 0,0 l/m 0,0 km/h (0 Bft) S 190 15 min 0,000 mm 1,0 UV-I 199 W/m 6,2 C 15,2 C 0,0 km/h (0 Bft) 0,00 %
13.04.2015 18:30 14,9 C 57 % 1024,9 hPa 0,0 l/m 0,4 km/h (0 Bft) S-SO 168 15 min 0,000 mm 1,0 UV-I 178 W/m 6,5 C 14,9 C 4,0 km/h (1 Bft) 0,00 %
13.04.2015 18:45 14,6 C 54 % 1024,9 hPa 0,0 l/m 0,0 km/h (0 Bft) W-SW 250 15 min 0,000 mm 1,0 UV-I 130 W/m 5,4 C 14,6 C 0,0 km/h (0 Bft) 0,00 %
13.04.2015 19:00 14,3 C 55 % 1024,7 hPa 0,0 l/m 2,9 km/h (1 Bft) W-SW 256 15 min 0,000 mm 0,0 UV-I 101 W/m 5,4 C 14,3 C 4,0 km/h (1 Bft) 0,00 %
13.04.2015 19:15 13,8 C 56 % 1024,9 hPa 0,0 l/m 2,2 km/h (1 Bft) W-SW 256 15 min 0,000 mm 0,0 UV-I 48 W/m 5,2 C 13,8 C 4,0 km/h (1 Bft) 0,00 %
13.04.2015 19:30 13,5 C 55 % 1025,1 hPa 0,0 l/m 0,0 km/h (0 Bft) S 183 0 min 0,000 mm 0,0 UV-I 23 W/m 4,6 C 13,5 C 0,0 km/h (0 Bft) 0,00 %
13.04.2015 19:45 13,0 C 55 % 1025,4 hPa 0,0 l/m 0,0 km/h (0 Bft) S-SW 205 0 min 0,000 mm 0,0 UV-I 0 W/m 4,2 C 13,0 C 0,0 km/h (0 Bft) 0,00 %
13.04.2015 20:00 12,7 C 55 % 1025,6 hPa 0,0 l/m 5,4 km/h (1 Bft) W-SW 252 0 min 0,000 mm 0,0 UV-I 0 W/m 3,9 C 12,7 C 7,9 km/h (2 Bft) 0,00 %
13.04.2015 20:15 12,5 C 55 % 1025,8 hPa 0,0 l/m 0,0 km/h (0 Bft) SW 223 0 min 0,000 mm 0,0 UV-I 0 W/m 3,7 C 12,5 C 0,0 km/h (0 Bft) 0,00 %
13.04.2015 20:30 12,2 C 55 % 1026,1 hPa 0,0 l/m 0,0 km/h (0 Bft) S 190 0 min 0,000 mm 0,0 UV-I 0 W/m 3,4 C 12,2 C 0,0 km/h (0 Bft) 0,00 %
13.04.2015 20:45 12,3 C 56 % 1026,5 hPa 0,0 l/m 0,0 km/h (0 Bft) SW 224 0 min 0,000 mm 0,0 UV-I 0 W/m 3,8 C 12,3 C 0,0 km/h (0 Bft) 0,00 %
13.04.2015 21:00 12,3 C 55 % 1026,5 hPa 0,0 l/m 13,3 km/h (3 Bft) W-SW 256 0 min 0,000 mm 0,0 UV-I 0 W/m 3,5 C 8,6 C 15,8 km/h (3 Bft) 0,00 %
13.04.2015 21:15 12,4 C 54 % 1026,9 hPa 0,0 l/m 4,3 km/h (1 Bft) W-SW 255 0 min 0,000 mm 0,0 UV-I 0 W/m 3,4 C 12,4 C 7,9 km/h (2 Bft) 0,00 %
13.04.2015 21:30 12,1 C 55 % 1027,1 hPa 0,0 l/m 0,4 km/h (0 Bft) SW 225 0 min 0,000 mm 0,0 UV-I 0 W/m 3,3 C 12,1 C 4,0 km/h (1 Bft) 0,00 %
13.04.2015 21:45 11,7 C 59 % 1027,2 hPa 0,0 l/m 1,4 km/h (1 Bft) W-SW 251 0 min 0,000 mm 0,0 UV-I 0 W/m 4,0 C 11,7 C 4,0 km/h (1 Bft) 0,00 %
13.04.2015 22:00 11,4 C 60 % 1027,6 hPa 0,0 l/m 0,0 km/h (0 Bft) S 182 0 min 0,000 mm 0,0 UV-I 0 W/m 3,9 C 11,4 C 0,0 km/h (0 Bft) 0,00 %
13.04.2015 22:15 11,2 C 61 % 1027,7 hPa 0,0 l/m 0,0 km/h (0 Bft) S-SW 199 0 min 0,000 mm 0,0 UV-I 0 W/m 4,0 C 11,2 C 0,0 km/h (0 Bft) 0,00 %
13.04.2015 22:30 11,0 C 62 % 1027,8 hPa 0,0 l/m 0,0 km/h (0 Bft) SW 217 0 min 0,000 mm 0,0 UV-I 0 W/m 4,0 C 11,0 C 0,0 km/h (0 Bft) 0,00 %
13.04.2015 22:45 11,0 C 62 % 1028,0 hPa 0,0 l/m 0,0 km/h (0 Bft) S 185 0 min 0,000 mm 0,0 UV-I 0 W/m 4,0 C 11,0 C 0,0 km/h (0 Bft) 0,00 %
13.04.2015 23:00 11,0 C 60 % 1028,2 hPa 0,0 l/m 0,0 km/h (0 Bft) SO 135 0 min 0,000 mm 0,0 UV-I 0 W/m 3,5 C 11,0 C 0,0 km/h (0 Bft) 0,00 %
13.04.2015 23:15 11,1 C 60 % 1028,2 hPa 0,0 l/m 0,0 km/h (0 Bft) SW 228 0 min 0,000 mm 0,0 UV-I 0 W/m 3,6 C 11,1 C 0,0 km/h (0 Bft) 0,00 %
13.04.2015 23:30 11,1 C 59 % 1028,1 hPa 0,0 l/m 0,0 km/h (0 Bft) S 187 0 min 0,000 mm 0,0 UV-I 0 W/m 3,4 C 11,1 C 0,0 km/h (0 Bft) 0,00 %
13.04.2015 23:45 11,1 C 57 % 1028,2 hPa 0,0 l/m 0,7 km/h (0 Bft) O 85 0 min 0,000 mm 0,0 UV-I 0 W/m 2,9 C 11,1 C 4,0 km/h (1 Bft) 0,00 %
_ Min-Zeit 05:45 14:15 16:15 - 00:00 - - - - - - 16:30 05:45 00:00 00:00
Minimum _ 5,6 C 36 % 1024,1 hPa - 0,0 km/h (0 Bft) - - - - - - 2,1 C 5,6 C 0,0 km/h (0 Bft) 0,00 %
_ Max-Zeit 15:30 05:45 23:00 00:00 10:45 - - 06:30 00:00 12:00 14:15 17:15 16:15 10:45 00:00
Maximum _ 18,4 C 82 % 1028,2 hPa 0,0 l/m 19,8 km/h
W-SW (3 Bft)
- - 15 min 0,000 mm 5,0 UV-I 858 W/m 7,4 C 18,0 C 24,1 km/h
W-SW (4 Bft)
0,00 %
Durchschnitt _ 12,2 C 60 % 1026,5 hPa #0,0 l/m 3,0 km/h (1 Bft) W-SW - #6:15 h #0,000 mm 2,2 UV-I 267 W/m 4,3 C 11,8 C 4,6 km/h (1 Bft) 0,00 %